Time;durP1;ratioP1;P1;durP2;ratioP2;P2;SDS_P1;SDS_P2;PMS_P1;PMS_P2;Temp;Humidity;BMP_temperature;BMP_pressure;BME280_temperature;BME280_humidity;BME280_pressure;Samples;Min_cycle;Max_cycle;Signal;HPM_P1;HPM_P2
2021/04/16 00:01:41;;;;;;;;;;;;;;;7.27;77.65;100853.88;1711930;83;20171;-64
2021/04/16 00:04:13;;;;;;;;;;;;;;;7.25;77.63;100857.06;1713517;84;20227;-65
2021/04/16 00:06:46;;;;;;;;;;;;;;;7.22;77.77;100854.65;1713690;82;20172;-64
2021/04/16 00:09:18;;;;;;;;;;;;;;;7.22;77.88;100854.65;1713283;84;20231;-64
2021/04/16 00:11:51;;;;;;;;;;;;;;;7.21;77.85;100853.46;1713537;84;20231;-64
2021/04/16 00:14:23;;;;;;;;;;;;;;;7.19;77.63;100852.23;1713259;84;20656;-64
2021/04/16 00:16:55;;;;;;;;;;;;;;;7.17;77.44;100854.58;1714282;84;20255;-65
2021/04/16 00:19:29;;;;;;;;;;;;;;;7.13;77.12;100850.51;1696940;83;20164;-65
2021/04/16 00:22:00;;;;;;;;;;;;;;;7.07;76.86;100853.03;1691143;83;20160;-65
2021/04/16 00:24:33;;;;;;;;;;;;;;;6.99;76.69;100856.62;1692106;85;20752;-65
2021/04/16 00:27:06;;;;;;;;;;;;;;;6.94;76.68;100853.93;1693105;85;20549;-65
2021/04/16 00:29:37;;;;;;;;;;;;;;;6.89;76.61;100858.59;1692414;85;20677;-64
2021/04/16 00:32:09;;;;;;;;;;;;;;;6.82;76.63;100859.92;1692719;85;20625;-65
2021/04/16 00:34:42;;;;;;;;;;;;;;;6.76;76.70;100856.77;1692519;85;20164;-65
2021/04/16 00:37:14;;;;;;;;;;;;;;;6.72;76.72;100858.36;1693187;85;20637;-65
2021/04/16 00:39:46;;;;;;;;;;;;;;;6.67;76.80;100866.46;1692492;85;20610;-64
2021/04/16 00:42:18;;;;;;;;;;;;;;;6.62;76.79;100862.02;1692263;85;20232;-65
2021/04/16 00:44:51;;;;;;;;;;;;;;;6.60;76.99;100866.48;1691221;84;20688;-65
2021/04/16 00:47:24;;;;;;;;;;;;;;;6.58;77.06;100866.20;1692690;85;20629;-65
2021/04/16 00:49:58;;;;;;;;;;;;;;;6.57;77.17;100870.56;1691100;84;20199;-65
2021/04/16 00:52:31;;;;;;;;;;;;;;;6.56;77.22;100868.07;1692493;85;20185;-65
2021/04/16 00:55:04;;;;;;;;;;;;;;;6.52;77.19;100877.81;1692518;85;20259;-65
2021/04/16 00:57:37;;;;;;;;;;;;;;;6.49;77.11;100884.53;1692965;85;20554;-64
2021/04/16 01:00:10;;;;;;;;;;;;;;;6.45;77.13;100890.02;1692471;85;20167;-64
2021/04/16 01:02:43;;;;;;;;;;;;;;;6.41;77.08;100900.22;1692611;85;20235;-64
2021/04/16 01:05:16;;;;;;;;;;;;;;;6.35;76.87;100895.41;1692481;85;20176;-65
2021/04/16 01:07:51;;;;;;;;;;;;;;;6.29;76.73;100895.77;1692356;83;20176;-65
2021/04/16 01:10:23;;;;;;;;;;;;;;;6.25;76.71;100902.09;1692404;85;20281;-65
2021/04/16 01:12:56;;;;;;;;;;;;;;;6.19;76.71;100899.39;1691221;84;20193;-65
2021/04/16 01:15:31;;;;;;;;;;;;;;;6.13;76.79;100897.17;1692521;85;20172;-65
2021/04/16 01:18:15;;;;;;;;;;;;;;;6.07;77.09;100900.97;1693018;85;20232;-65
2021/04/16 01:20:50;;;;;;;;;;;;;;;6.03;77.25;100899.48;1691117;83;20172;-65
2021/04/16 01:23:28;;;;;;;;;;;;;;;5.98;77.43;100908.02;1692213;85;20617;-65
2021/04/16 01:26:00;;;;;;;;;;;;;;;5.93;77.49;100902.70;1692115;85;20251;-64
2021/04/16 01:28:32;;;;;;;;;;;;;;;5.90;77.51;100905.02;1692763;85;20271;-64
2021/04/16 01:31:10;;;;;;;;;;;;;;;5.89;77.48;100908.56;1691087;84;20204;-64
2021/04/16 01:33:45;;;;;;;;;;;;;;;5.88;77.42;100913.38;1682837;85;20235;-65
2021/04/16 01:36:20;;;;;;;;;;;;;;;5.93;77.57;100916.55;1672025;86;20239;-65
2021/04/16 01:38:52;;;;;;;;;;;;;;;6.00;77.56;100919.16;1670945;86;20231;-65
2021/04/16 01:41:25;;;;;;;;;;;;;;;6.08;77.64;100919.55;1671826;86;20175;-65
2021/04/16 01:44:03;;;;;;;;;;;;;;;6.17;77.48;100922.05;1671139;85;20175;-65
2021/04/16 01:46:52;;;;;;;;;;;;;;;6.24;77.30;100918.61;1671629;86;20294;-65
2021/04/16 01:49:26;;;;;;;;;;;;;;;6.32;77.26;100921.59;1672464;86;20564;-65
2021/04/16 01:51:58;;;;;;;;;;;;;;;6.38;76.91;100928.55;1671548;86;20230;-65
2021/04/16 01:54:37;;;;;;;;;;;;;;;6.40;76.74;100928.47;1671605;86;20613;-65
2021/04/16 01:57:11;;;;;;;;;;;;;;;6.40;76.60;100931.89;1671757;86;20235;-65
2021/04/16 01:59:44;;;;;;;;;;;;;;;6.40;76.54;100932.37;1672839;86;20231;-64
2021/04/16 02:02:21;;;;;;;;;;;;;;;6.40;76.50;100935.79;1673916;86;20234;-65
2021/04/16 02:04:53;;;;;;;;;;;;;;;6.42;76.44;100935.25;1673807;86;20247;-64
2021/04/16 02:07:26;;;;;;;;;;;;;;;6.44;76.40;100934.70;1673730;84;20203;-64
2021/04/16 02:09:58;;;;;;;;;;;;;;;6.47;76.48;100933.67;1675080;86;20182;-65
2021/04/16 02:12:30;;;;;;;;;;;;;;;6.49;76.51;100937.86;1658144;86;20548;-64
2021/04/16 02:15:02;;;;;;;;;;;;;;;6.51;76.54;100943.80;1674166;86;20243;-63
2021/04/16 02:17:34;;;;;;;;;;;;;;;6.56;76.75;100948.71;1673892;86;20808;-64
2021/04/16 02:20:13;;;;;;;;;;;;;;;6.66;76.84;100947.23;1675099;86;20182;-64
2021/04/16 02:22:45;;;;;;;;;;;;;;;6.74;76.85;100956.22;1664008;85;20234;-64
2021/04/16 02:25:17;;;;;;;;;;;;;;;6.83;76.70;100957.41;1697218;84;20189;-65
2021/04/16 02:27:49;;;;;;;;;;;;;;;6.89;76.64;100958.34;1697766;84;20325;-64
2021/04/16 02:30:27;;;;;;;;;;;;;;;6.92;76.65;100957.31;1698728;84;20253;-64
2021/04/16 02:32:59;;;;;;;;;;;;;;;6.95;76.65;100955.34;1689372;84;20174;-64
2021/04/16 02:35:32;;;;;;;;;;;;;;;6.98;76.71;100962.97;1677142;84;20225;-64
2021/04/16 02:38:04;;;;;;;;;;;;;;;7.03;76.67;100958.77;1668136;86;20186;-65
2021/04/16 02:40:36;;;;;;;;;;;;;;;7.06;76.65;100958.58;1669241;86;20206;-63
2021/04/16 02:43:08;;;;;;;;;;;;;;;7.10;76.69;100961.35;1668202;86;20229;-65
2021/04/16 02:45:40;;;;;;;;;;;;;;;7.15;76.77;100961.90;1667787;86;20159;-63
2021/04/16 02:48:12;;;;;;;;;;;;;;;7.24;76.82;100969.97;1668100;86;20174;-65
2021/04/16 02:50:46;;;;;;;;;;;;;;;7.31;76.69;100963.44;1669258;86;20241;-64
2021/04/16 02:53:17;;;;;;;;;;;;;;;7.37;76.50;100968.27;1667921;86;20202;-65
2021/04/16 02:55:50;;;;;;;;;;;;;;;7.42;76.37;100970.11;1667690;86;20171;-65
2021/04/16 02:58:23;;;;;;;;;;;;;;;7.48;76.29;100967.55;1668016;86;20233;-65
2021/04/16 03:00:55;;;;;;;;;;;;;;;7.52;76.16;100967.75;1669346;86;20174;-64
2021/04/16 03:03:27;;;;;;;;;;;;;;;7.55;76.14;100970.62;1668034;86;20257;-64
2021/04/16 03:06:00;;;;;;;;;;;;;;;7.61;76.08;100972.36;1667833;86;20162;-65
2021/04/16 03:08:32;;;;;;;;;;;;;;;7.71;75.93;100972.13;1673057;84;20405;-65
2021/04/16 03:11:06;;;;;;;;;;;;;;;7.81;75.71;100973.17;1669103;86;20548;-60
2021/04/16 03:13:38;;;;;;;;;;;;;;;7.92;75.48;100979.84;1668188;86;20218;-61
2021/04/16 03:16:10;;;;;;;;;;;;;;;7.95;75.26;100979.61;1667868;86;20174;-60
2021/04/16 03:18:44;;;;;;;;;;;;;;;7.99;75.19;100983.70;1667999;86;20237;-61
2021/04/16 03:21:16;;;;;;;;;;;;;;;8.01;75.07;100989.65;1669220;86;20174;-61
2021/04/16 03:23:48;;;;;;;;;;;;;;;8.06;74.95;100984.97;1666605;86;20210;-60
2021/04/16 03:26:20;;;;;;;;;;;;;;;8.11;74.69;100991.17;1653390;87;20557;-61
2021/04/16 03:28:54;;;;;;;;;;;;;;;8.13;74.59;100995.35;1653730;87;20175;-60
2021/04/16 03:31:26;;;;;;;;;;;;;;;8.17;74.50;100995.97;1654770;87;20178;-60
2021/04/16 03:33:59;;;;;;;;;;;;;;;8.18;74.35;100999.42;1653745;87;20294;-60
2021/04/16 03:36:31;;;;;;;;;;;;;;;8.20;74.17;101006.20;1653281;87;20351;-60
2021/04/16 03:39:03;;;;;;;;;;;;;;;8.18;74.01;101007.24;1653589;87;20216;-60
2021/04/16 03:41:35;;;;;;;;;;;;;;;8.20;74.15;101007.97;1654760;87;20210;-61
2021/04/16 03:44:07;;;;;;;;;;;;;;;8.31;74.19;101010.25;1653967;87;20174;-60
2021/04/16 03:46:39;;;;;;;;;;;;;;;8.40;74.26;101007.51;1653476;87;20171;-60
2021/04/16 03:49:11;;;;;;;;;;;;;;;8.48;74.30;101017.78;1653830;87;20178;-61
2021/04/16 03:51:54;;;;;;;;;;;;;;;8.55;74.37;101012.50;1654913;87;20191;-62
2021/04/16 03:54:26;;;;;;;;;;;;;;;8.60;74.36;101016.94;1653462;87;20604;-60
2021/04/16 03:56:59;;;;;;;;;;;;;;;8.65;74.54;101023.16;1653562;87;20536;-60
2021/04/16 03:59:31;;;;;;;;;;;;;;;8.72;74.61;101030.92;1653520;87;20776;-60
2021/04/16 04:02:03;;;;;;;;;;;;;;;8.76;74.54;101035.83;1654799;87;20234;-60
2021/04/16 04:04:36;;;;;;;;;;;;;;;8.77;74.55;101036.20;1653864;87;20178;-60
2021/04/16 04:07:08;;;;;;;;;;;;;;;8.81;74.72;101035.54;1653646;85;20326;-61
2021/04/16 04:09:40;;;;;;;;;;;;;;;8.88;74.83;101038.09;1651167;87;20696;-61
2021/04/16 04:12:13;;;;;;;;;;;;;;;8.97;74.92;101041.36;1649335;86;20222;-60
2021/04/16 04:14:45;;;;;;;;;;;;;;;9.07;74.81;101043.70;1650745;87;20234;-61
2021/04/16 04:17:26;;;;;;;;;;;;;;;9.14;74.77;101048.02;1653574;87;20616;-60
2021/04/16 04:19:59;;;;;;;;;;;;;;;9.21;74.81;101049.25;1653236;87;20592;-59
2021/04/16 04:22:31;;;;;;;;;;;;;;;9.33;74.82;101049.23;1653878;87;20389;-62
2021/04/16 04:25:03;;;;;;;;;;;;;;;9.44;74.78;101047.14;1649480;86;20798;-62
2021/04/16 04:27:35;;;;;;;;;;;;;;;9.53;74.47;101050.40;1628711;88;20236;-62
2021/04/16 04:30:08;;;;;;;;;;;;;;;9.60;74.46;101046.39;1627532;88;20756;-61
2021/04/16 04:32:40;;;;;;;;;;;;;;;9.67;74.08;101043.73;1629058;88;20263;-62
2021/04/16 04:35:13;;;;;;;;;;;;;;;9.71;73.68;101047.78;1631543;88;20208;-61
2021/04/16 04:37:45;;;;;;;;;;;;;;;9.77;73.49;101043.41;1632815;88;20204;-62
2021/04/16 04:40:17;;;;;;;;;;;;;;;9.85;73.29;101042.38;1632682;88;20677;-62
2021/04/16 04:42:49;;;;;;;;;;;;;;;9.98;73.01;101044.44;1632894;88;20212;-60
2021/04/16 04:45:21;;;;;;;;;;;;;;;10.10;72.58;101046.66;1631937;88;20240;-61
2021/04/16 04:47:54;;;;;;;;;;;;;;;10.25;72.34;101041.59;1633307;88;20240;-61
2021/04/16 04:50:27;;;;;;;;;;;;;;;10.46;71.97;101040.47;1633418;86;20314;-61
2021/04/16 04:52:59;;;;;;;;;;;;;;;10.67;71.41;101051.92;1684377;85;20362;-61
2021/04/16 04:59:54;;;;;;;;;;;;;;;11.83;69.56;101045.73;1656527;86;20870;-62
2021/04/16 05:06:22;;;;;;;;;;;;;;;15.08;61.58;101044.34;1656603;86;20240;-72
2021/04/16 05:08:55;;;;;;;;;;;;;;;17.00;55.29;101043.14;1681404;84;62460;-70
2021/04/16 05:11:28;;;;;;;;;;;;;;;18.12;52.56;101041.78;1685538;84;20204;-73
2021/04/16 05:14:00;;;;;;;;;;;;;;;19.17;49.69;101041.59;1691336;84;20238;-74
2021/04/16 05:16:33;;;;;;;;;;;;;;;19.97;46.19;101043.80;1688749;84;20267;-78
2021/04/16 05:19:06;;;;;;;;;;;;;;;20.55;44.39;101043.66;1690819;84;20216;-72
2021/04/16 05:21:40;;;;;;;;;;;;;;;21.09;42.23;101045.08;1689889;84;20285;-75
2021/04/16 05:24:13;;;;;;;;;;;;;;;21.62;40.74;101041.70;1691149;84;20227;-75
2021/04/16 05:26:45;;;;;;;;;;;;;;;22.44;38.96;101032.25;1686219;84;20795;-75
2021/04/16 05:29:17;;;;;;;;;;;;;;;23.21;36.94;101036.95;1685359;84;20287;-75
2021/04/16 05:31:49;;;;;;;;;;;;;;;23.73;35.08;101033.14;1674761;84;20241;-74
2021/04/16 05:34:23;;;;;;;;;;;;;;;24.19;34.04;101029.21;1659833;85;20284;-74
2021/04/16 05:36:56;;;;;;;;;;;;;;;24.77;32.66;101031.52;1631322;87;20255;-72
2021/04/16 05:39:30;;;;;;;;;;;;;;;25.20;31.64;101031.28;1659524;85;20234;-74
2021/04/16 05:42:05;;;;;;;;;;;;;;;25.70;30.69;101037.65;1662271;85;20238;-73
2021/04/16 05:44:37;;;;;;;;;;;;;;;26.11;29.42;101025.11;1633909;85;20333;-73
2021/04/16 05:47:09;;;;;;;;;;;;;;;26.16;29.33;101026.63;1662060;85;20275;-74
2021/04/16 05:49:42;;;;;;;;;;;;;;;26.01;29.11;101028.25;1656732;85;20728;-74
2021/04/16 05:52:14;;;;;;;;;;;;;;;26.18;28.57;101025.88;1632960;85;20319;-75
2021/04/16 05:54:46;;;;;;;;;;;;;;;26.13;28.23;101019.55;1661251;85;20224;-73
2021/04/16 05:57:18;;;;;;;;;;;;;;;25.85;28.69;101026.62;1656881;85;20315;-73
2021/04/16 05:59:49;;;;;;;;;;;;;;;25.46;28.44;101022.31;1660667;85;20226;-73
2021/04/16 06:02:32;;;;;;;;;;;;;;;25.61;27.87;101020.17;1655946;85;20331;-70
2021/04/16 06:05:12;;;;;;;;;;;;;;;26.24;25.66;101017.48;1657191;85;20990;-73
2021/04/16 06:07:44;;;;;;;;;;;;;;;26.71;25.29;101016.29;1662334;84;20719;-71
2021/04/16 06:10:16;;;;;;;;;;;;;;;27.17;24.86;101020.34;1664355;85;20267;-72
2021/04/16 06:12:55;;;;;;;;;;;;;;;27.62;24.15;101016.75;1656073;85;20341;-74
2021/04/16 06:15:29;;;;;;;;;;;;;;;28.01;23.85;101016.20;1664051;85;20291;-71
2021/04/16 06:18:03;;;;;;;;;;;;;;;28.36;23.56;101022.42;1612280;85;20222;-73
2021/04/16 06:20:37;;;;;;;;;;;;;;;28.68;22.63;101021.02;1659213;85;20646;-72
2021/04/16 06:23:09;;;;;;;;;;;;;;;28.73;22.69;101027.08;1659683;85;20282;-72
2021/04/16 06:25:41;;;;;;;;;;;;;;;28.94;21.71;101023.75;1658898;85;20250;-73
2021/04/16 06:28:16;;;;;;;;;;;;;;;29.01;21.63;101030.36;1662350;85;20531;-74
2021/04/16 06:30:49;;;;;;;;;;;;;;;28.72;21.20;101036.73;1661806;85;20289;-74
2021/04/16 06:33:30;;;;;;;;;;;;;;;28.33;21.66;101025.58;1655999;85;20303;-73
2021/04/16 06:36:05;;;;;;;;;;;;;;;27.89;21.79;101037.67;1652388;85;20297;-74
2021/04/16 06:38:43;;;;;;;;;;;;;;;27.93;22.02;101030.77;1655452;85;20832;-73
2021/04/16 06:41:21;;;;;;;;;;;;;;;28.04;21.63;101034.55;1658342;85;20677;-73
2021/04/16 06:44:00;;;;;;;;;;;;;;;28.18;21.82;101033.31;1659255;85;20306;-74
2021/04/16 06:46:38;;;;;;;;;;;;;;;28.11;21.53;101037.16;1634549;85;20250;-72
2021/04/16 06:49:22;;;;;;;;;;;;;;;28.01;21.64;101033.69;1658784;85;20224;-75
2021/04/16 06:52:17;;;;;;;;;;;;;;;28.35;21.20;101032.89;1663622;85;20324;-73
2021/04/16 06:55:05;;;;;;;;;;;;;;;28.62;20.85;101034.63;1660282;85;20937;-74
2021/04/16 06:57:46;;;;;;;;;;;;;;;28.88;20.60;101035.99;1660433;85;20215;-73
2021/04/16 07:00:33;;;;;;;;;;;;;;;28.84;20.69;101034.31;1661062;84;20275;-72
2021/04/16 07:03:23;;;;;;;;;;;;;;;28.84;20.52;101027.58;1667113;85;20318;-75
2021/04/16 07:06:01;;;;;;;;;;;;;;;28.66;20.56;101026.35;1657401;85;20672;-75
2021/04/16 07:08:41;;;;;;;;;;;;;;;28.78;20.63;101026.36;1654568;85;20680;-75
2021/04/16 07:11:31;;;;;;;;;;;;;;;29.18;20.47;101028.56;1678311;83;20266;-73
2021/04/16 07:14:04;;;;;;;;;;;;;;;29.70;20.22;101026.60;1684936;83;20293;-74
2021/04/16 07:16:37;;;;;;;;;;;;;;;30.20;19.38;101030.72;1678084;83;20285;-72
2021/04/16 07:19:18;;;;;;;;;;;;;;;30.36;19.27;101023.98;1679886;84;20303;-73
2021/04/16 07:21:59;;;;;;;;;;;;;;;30.50;19.13;101017.69;1678196;83;20287;-71
2021/04/16 07:24:32;;;;;;;;;;;;;;;30.83;18.67;101010.88;1685751;83;20292;-73
2021/04/16 07:27:16;;;;;;;;;;;;;;;31.15;18.33;101010.48;1682621;82;20287;-73
2021/04/16 07:29:54;;;;;;;;;;;;;;;31.68;17.86;101005.66;1677693;84;20202;-74
2021/04/16 07:32:32;;;;;;;;;;;;;;;31.95;17.69;101004.27;1686339;83;20244;-74
2021/04/16 07:35:25;;;;;;;;;;;;;;;32.10;17.52;101004.95;1680659;83;20685;-74
2021/04/16 07:38:17;;;;;;;;;;;;;;;32.17;17.16;101009.05;1681564;83;20287;-74
2021/04/16 07:40:51;;;;;;;;;;;;;;;31.98;17.05;101006.47;1681953;83;20863;-74
2021/04/16 07:43:43;;;;;;;;;;;;;;;31.60;17.34;101003.96;1681718;84;20230;-73
2021/04/16 07:46:31;;;;;;;;;;;;;;;31.56;17.55;101010.94;1683555;83;20260;-73
2021/04/16 07:49:15;;;;;;;;;;;;;;;31.58;17.33;100996.61;1684938;84;20290;-74
2021/04/16 07:51:51;;;;;;;;;;;;;;;31.48;17.39;101006.00;1678783;83;20260;-75
2021/04/16 07:54:30;;;;;;;;;;;;;;;31.18;17.51;100997.80;1681941;84;20307;-75
2021/04/16 07:57:08;;;;;;;;;;;;;;;30.96;17.60;101003.75;1674473;84;20292;-74
2021/04/16 08:00:00;;;;;;;;;;;;;;;30.98;17.76;100994.03;1686806;83;20230;-74
2021/04/16 08:02:34;;;;;;;;;;;;;;;31.41;17.48;101000.73;1682409;84;20275;-72
2021/04/16 08:05:28;;;;;;;;;;;;;;;31.60;17.47;100998.55;1684557;84;20266;-74
2021/04/16 08:08:12;;;;;;;;;;;;;;;31.27;17.44;100997.62;1661984;83;20646;-76
2021/04/16 08:10:54;;;;;;;;;;;;;;;30.91;17.73;100987.99;1668747;83;20265;-76
2021/04/16 08:13:33;;;;;;;;;;;;;;;30.35;17.98;100981.84;1671167;82;20308;-76
2021/04/16 08:16:28;;;;;;;;;;;;;;;28.74;19.28;100996.36;1684817;83;20352;-74
2021/04/16 08:19:17;;;;;;;;;;;;;;;27.58;20.45;101004.83;1696357;83;20273;-72
2021/04/16 08:21:52;;;;;;;;;;;;;;;25.98;21.94;100988.98;1680112;83;20242;-74
2021/04/16 08:24:31;;;;;;;;;;;;;;;25.23;23.20;101000.05;1680884;82;20232;-73
2021/04/16 08:27:28;;;;;;;;;;;;;;;25.59;23.34;100994.61;1687174;83;20307;-74
2021/04/16 08:30:24;;;;;;;;;;;;;;;26.11;22.64;100990.23;1690329;83;20222;-72
2021/04/16 08:33:08;;;;;;;;;;;;;;;25.92;22.42;100989.32;1680049;84;20234;-74
2021/04/16 08:35:56;;;;;;;;;;;;;;;24.96;23.49;100995.02;1678332;84;20308;-73
2021/04/16 08:38:30;;;;;;;;;;;;;;;24.61;24.21;100991.27;1684105;84;20243;-75
2021/04/16 08:41:03;;;;;;;;;;;;;;;25.02;24.26;100988.80;1666640;84;20694;-74
2021/04/16 08:43:47;;;;;;;;;;;;;;;25.59;23.58;100991.93;1681810;82;20295;-77
2021/04/16 08:46:39;;;;;;;;;;;;;;;25.68;23.38;100992.80;1683813;84;20295;-75
2021/04/16 08:49:19;;;;;;;;;;;;;;;25.66;23.30;100977.95;1677168;84;20215;-77
2021/04/16 08:52:00;;;;;;;;;;;;;;;25.98;23.18;100979.05;1687524;84;20305;-76
2021/04/16 08:54:34;;;;;;;;;;;;;;;26.32;22.92;100973.72;1681428;83;20773;-75
2021/04/16 08:57:09;;;;;;;;;;;;;;;26.42;22.62;100965.15;1689313;84;20223;-75
2021/04/16 09:00:03;;;;;;;;;;;;;;;26.25;23.01;100961.42;1682029;83;20294;-74
2021/04/16 09:02:52;;;;;;;;;;;;;;;25.38;23.49;100969.77;1677301;84;20256;-75
2021/04/16 09:05:29;;;;;;;;;;;;;;;25.03;24.42;100971.16;1685071;83;20276;-75
2021/04/16 09:08:12;;;;;;;;;;;;;;;25.40;24.13;100970.38;1681327;84;20314;-75
2021/04/16 09:10:47;;;;;;;;;;;;;;;25.72;23.46;100972.54;1680221;84;20269;-75
2021/04/16 09:13:41;;;;;;;;;;;;;;;25.98;22.95;100961.60;1661770;84;20310;-75
2021/04/16 09:16:21;;;;;;;;;;;;;;;26.25;22.76;100953.38;1672588;84;20262;-75
2021/04/16 09:18:54;;;;;;;;;;;;;;;25.82;23.08;100965.35;1663622;84;20242;-73
2021/04/16 09:21:30;;;;;;;;;;;;;;;24.87;23.66;100963.61;1667471;85;20215;-76
2021/04/16 09:24:09;;;;;;;;;;;;;;;23.55;25.42;100963.91;1650464;85;20640;-75
2021/04/16 09:26:50;;;;;;;;;;;;;;;22.46;26.71;100964.84;1658673;85;20302;-75
2021/04/16 09:29:28;;;;;;;;;;;;;;;22.11;27.48;100958.13;1652285;85;20286;-75
2021/04/16 09:32:04;;;;;;;;;;;;;;;21.67;28.45;100960.69;1659705;85;20434;-74
2021/04/16 09:34:49;;;;;;;;;;;;;;;21.18;28.92;100971.26;1650986;85;20241;-74
2021/04/16 09:37:36;;;;;;;;;;;;;;;21.21;29.23;100961.54;1664584;85;20553;-75
2021/04/16 09:40:25;;;;;;;;;;;;;;;21.01;29.73;100961.30;1657297;85;20357;-73
2021/04/16 09:43:00;;;;;;;;;;;;;;;20.90;29.47;100956.97;1659509;85;20230;-75
2021/04/16 09:45:37;;;;;;;;;;;;;;;20.78;29.23;100957.42;1656220;85;20699;-74
2021/04/16 09:48:21;;;;;;;;;;;;;;;20.42;29.99;100961.82;1661016;85;20218;-76
2021/04/16 09:51:02;;;;;;;;;;;;;;;20.08;30.45;100964.95;1655801;85;21115;-75
2021/04/16 09:53:35;;;;;;;;;;;;;;;19.80;30.95;100964.39;1656778;85;20196;-75
2021/04/16 09:56:20;;;;;;;;;;;;;;;19.69;31.46;100969.61;1659216;85;20305;-74
2021/04/16 09:58:55;;;;;;;;;;;;;;;19.64;31.83;100965.83;1660865;85;20272;-74
2021/04/16 10:01:28;;;;;;;;;;;;;;;19.64;31.99;100965.33;1658533;85;20274;-76
2021/04/16 10:05:00;;;;;;;;;;;;;;;19.68;31.77;100957.84;1662827;85;20285;-79
2021/04/16 10:07:48;;;;;;;;;;;;;;;19.45;32.16;100981.23;1662310;84;20330;-74
2021/04/16 10:10:39;;;;;;;;;;;;;;;19.16;32.03;100981.03;1659573;85;20694;-75
2021/04/16 10:13:25;;;;;;;;;;;;;;;18.89;32.36;100972.72;1653227;85;20262;-74
2021/04/16 10:15:58;;;;;;;;;;;;;;;18.67;32.72;100970.31;1629771;86;20219;-72
2021/04/16 10:18:39;;;;;;;;;;;;;;;18.69;32.87;100974.94;1663919;85;20725;-74
2021/04/16 10:21:22;;;;;;;;;;;;;;;18.81;32.71;100980.20;1684319;83;20287;-73
2021/04/16 11:11:11;;;;;;;;;;;;;;;19.13;31.98;100999.95;1681010;83;20342;-74
2021/04/16 12:39:05;;;;;;;;;;;;;;;17.73;34.84;101011.61;1678988;83;20324;-74
2021/04/16 12:41:40;;;;;;;;;;;;;;;17.69;34.94;101008.97;1693555;82;20590;-75
2021/04/16 12:44:32;;;;;;;;;;;;;;;17.70;35.15;101006.14;1708599;82;20240;-74
2021/04/16 12:47:07;;;;;;;;;;;;;;;17.75;35.04;101007.80;1710012;83;20206;-73
2021/04/16 12:49:39;;;;;;;;;;;;;;;17.78;35.10;101002.19;1710818;82;20279;-75
2021/04/16 12:52:11;;;;;;;;;;;;;;;17.83;35.20;101003.85;1715898;83;20233;-75
2021/04/16 12:54:44;;;;;;;;;;;;;;;17.90;35.07;101010.14;1705989;82;20934;-75
2021/04/16 12:57:23;;;;;;;;;;;;;;;17.93;34.93;101011.64;1711997;83;20297;-74
2021/04/16 12:59:54;;;;;;;;;;;;;;;17.93;34.81;101012.97;1709192;83;20190;-76
2021/04/16 13:02:30;;;;;;;;;;;;;;;17.92;34.86;101011.30;1719918;83;20305;-73
2021/04/16 13:05:06;;;;;;;;;;;;;;;17.91;34.63;101003.84;1719837;83;20695;-72
2021/04/16 13:07:39;;;;;;;;;;;;;;;17.91;34.63;101006.48;1708834;83;20233;-72
2021/04/16 13:10:14;;;;;;;;;;;;;;;17.92;34.31;101008.16;1714336;83;20276;-72
2021/04/16 13:12:46;;;;;;;;;;;;;;;17.91;34.51;101009.66;1707149;83;20282;-72
2021/04/16 13:15:20;;;;;;;;;;;;;;;17.93;34.51;101008.50;1713112;83;20274;-73
2021/04/16 13:17:58;;;;;;;;;;;;;;;17.89;34.09;101008.97;1716925;83;20670;-72
2021/04/16 13:20:30;;;;;;;;;;;;;;;17.81;34.26;101005.84;1696020;83;20603;-72
2021/04/16 13:23:02;;;;;;;;;;;;;;;17.76;34.38;101005.99;1695456;85;20668;-73
2021/04/16 13:25:34;;;;;;;;;;;;;;;17.75;34.50;101006.97;1674643;85;20293;-73
2021/04/16 13:28:07;;;;;;;;;;;;;;;17.75;34.58;101013.10;1677329;85;21035;-72
2021/04/16 13:30:39;;;;;;;;;;;;;;;17.76;34.56;101008.64;1721641;82;20281;-72
2021/04/16 13:33:18;;;;;;;;;;;;;;;17.73;34.66;101005.82;1728863;82;20238;-72
2021/04/16 13:35:54;;;;;;;;;;;;;;;17.71;34.30;101009.63;1735298;82;20303;-73
2021/04/16 13:38:27;;;;;;;;;;;;;;;17.65;34.42;101002.34;1733880;82;20237;-73
2021/04/16 13:41:00;;;;;;;;;;;;;;;17.59;34.58;101013.09;1731487;82;20257;-73
2021/04/16 13:43:32;;;;;;;;;;;;;;;17.51;34.64;101009.05;1730336;82;20252;-73
2021/04/16 13:46:07;;;;;;;;;;;;;;;17.48;34.85;101017.34;1729972;82;20261;-72
2021/04/16 13:48:40;;;;;;;;;;;;;;;17.46;35.05;101010.03;1709970;83;20306;-73
2021/04/16 13:51:13;;;;;;;;;;;;;;;17.38;35.04;101008.71;1727795;82;20284;-74
2021/04/16 13:53:46;;;;;;;;;;;;;;;17.25;35.32;101009.16;1728601;83;20173;-72
2021/04/16 13:56:18;;;;;;;;;;;;;;;17.19;35.60;101001.88;1719821;83;20189;-72
2021/04/16 13:58:50;;;;;;;;;;;;;;;17.17;35.61;101000.38;1721644;83;20240;-73
2021/04/16 14:01:23;;;;;;;;;;;;;;;17.10;35.84;100994.07;1716350;83;20280;-72
2021/04/16 14:04:01;;;;;;;;;;;;;;;17.06;35.89;100995.36;1697715;83;20227;-72
2021/04/16 14:06:36;;;;;;;;;;;;;;;16.98;35.93;100990.05;1723777;83;20229;-73
2021/04/16 14:09:13;;;;;;;;;;;;;;;16.89;36.13;100990.50;1721596;83;20268;-73
2021/04/16 14:11:44;;;;;;;;;;;;;;;16.78;36.18;100990.30;1722335;83;20300;-72
2021/04/16 14:14:19;;;;;;;;;;;;;;;16.68;36.35;100988.27;1722621;83;20268;-73
2021/04/16 14:16:58;;;;;;;;;;;;;;;16.61;36.53;100988.55;1714038;83;20274;-72
2021/04/16 14:19:39;;;;;;;;;;;;;;;16.58;36.69;100984.89;1720153;83;20731;-72
2021/04/16 14:22:16;;;;;;;;;;;;;;;16.56;36.94;100983.39;1719180;83;20252;-72
2021/04/16 14:24:47;;;;;;;;;;;;;;;16.54;36.99;100986.69;1727139;83;20704;-73
2021/04/16 14:27:19;;;;;;;;;;;;;;;16.55;37.05;100986.52;1735466;83;20276;-71
2021/04/16 14:29:54;;;;;;;;;;;;;;;16.59;37.12;100992.34;1734664;83;20276;-72
2021/04/16 14:32:26;;;;;;;;;;;;;;;16.65;37.10;100979.80;1734308;83;20213;-73
2021/04/16 14:34:58;;;;;;;;;;;;;;;16.68;37.17;100985.62;1728085;83;20613;-73
2021/04/16 14:37:32;;;;;;;;;;;;;;;16.70;36.96;100990.25;1713275;83;20413;-73
2021/04/16 14:40:08;;;;;;;;;;;;;;;16.67;37.03;100989.75;1719330;83;20708;-72
2021/04/16 14:42:40;;;;;;;;;;;;;;;16.66;37.23;100987.59;1719538;83;20241;-72
2021/04/16 14:45:18;;;;;;;;;;;;;;;16.66;37.08;100995.53;1721342;83;20225;-72
2021/04/16 14:47:50;;;;;;;;;;;;;;;16.64;36.93;100993.54;1721141;83;20252;-73
2021/04/16 14:50:22;;;;;;;;;;;;;;;16.61;36.89;100991.69;1719758;83;20237;-73
2021/04/16 14:52:54;;;;;;;;;;;;;;;16.53;37.11;100989.82;1699920;83;20173;-73
2021/04/16 14:55:29;;;;;;;;;;;;;;;16.47;37.18;100983.82;1719289;83;20292;-73
2021/04/16 14:58:01;;;;;;;;;;;;;;;16.41;37.15;100979.14;1715669;83;20207;-73
2021/04/16 15:00:35;;;;;;;;;;;;;;;16.35;37.27;100981.59;1716034;83;20668;-72
2021/04/16 15:03:08;;;;;;;;;;;;;;;16.31;37.47;100978.93;1732517;83;20194;-72
2021/04/16 15:05:40;;;;;;;;;;;;;;;16.30;37.67;100974.61;1731574;83;20237;-72
2021/04/16 15:08:15;;;;;;;;;;;;;;;16.28;37.78;100980.06;1701494;84;20267;-73
2021/04/16 15:10:50;;;;;;;;;;;;;;;16.25;37.98;100976.89;1707414;83;20176;-73
2021/04/16 15:13:27;;;;;;;;;;;;;;;16.26;38.12;100979.87;1716168;83;20262;-72
2021/04/16 15:16:03;;;;;;;;;;;;;;;16.28;38.17;100977.91;1715718;83;20279;-73
2021/04/16 15:18:35;;;;;;;;;;;;;;;16.31;38.14;100976.28;1720757;83;20316;-73
2021/04/16 15:21:12;;;;;;;;;;;;;;;16.33;38.04;100976.47;1708622;83;20660;-73
2021/04/16 15:23:48;;;;;;;;;;;;;;;16.34;37.96;100975.95;1713892;83;20179;-72
2021/04/16 15:26:22;;;;;;;;;;;;;;;16.33;38.04;100976.95;1712012;83;20311;-74
2021/04/16 15:29:09;;;;;;;;;;;;;;;16.27;37.84;100975.75;1719453;83;20320;-72
2021/04/16 15:31:43;;;;;;;;;;;;;;;16.21;38.04;100980.34;1719696;83;20225;-73
2021/04/16 15:48:26;;;;;;;;;;;;;;;15.66;39.31;100987.66;1718729;83;20690;-73
2021/04/16 15:51:01;;;;;;;;;;;;;;;15.53;39.52;100983.71;1723611;82;20269;-72
2021/04/16 15:53:35;;;;;;;;;;;;;;;15.39;39.73;100983.23;1721910;83;20279;-72
2021/04/16 15:56:09;;;;;;;;;;;;;;;15.27;40.02;100991.02;1721080;83;20169;-72
2021/04/16 15:58:43;;;;;;;;;;;;;;;15.15;40.51;100993.52;1727150;83;20265;-72
2021/04/16 16:01:17;;;;;;;;;;;;;;;15.04;40.82;100995.05;1716053;83;20197;-72